Time;durP1;ratioP1;P1;durP2;ratioP2;P2;SDS_P1;SDS_P2;PMS_P1;PMS_P2;Temp;Humidity;BMP_temperature;BMP_pressure;BME280_temperature;BME280_humidity;BME280_pressure;Samples;Min_cycle;Max_cycle;Signal;HPM_P1;HPM_P2
2022/06/04 00:01:08;;;;;;;13.73;12.63;;;19.10;99.90;;;;;;10467629;28;20300;-80
2022/06/04 00:06:10;;;;;;;12.80;11.70;;;19.20;99.90;;;;;;10464826;28;20224;-80
2022/06/04 00:16:47;;;;;;;13.53;12.43;;;19.20;99.90;;;;;;10317551;28;20227;-80
2022/06/04 00:21:50;;;;;;;15.10;13.80;;;19.10;99.90;;;;;;10424156;28;20259;-79
2022/06/04 00:26:54;;;;;;;14.27;13.00;;;19.10;99.90;;;;;;10451640;28;20200;-79
2022/06/04 00:31:56;;;;;;;13.70;12.50;;;19.10;99.90;;;;;;10461190;28;20321;-80
2022/06/04 00:36:59;;;;;;;13.17;11.50;;;19.20;99.90;;;;;;10464304;28;20260;-81
2022/06/04 00:42:08;;;;;;;12.00;11.00;;;19.20;99.90;;;;;;10480633;28;20309;-80
2022/06/04 00:47:15;;;;;;;12.10;11.10;;;19.20;99.90;;;;;;10466595;28;20274;-79
2022/06/04 00:52:18;;;;;;;11.30;10.30;;;19.20;99.90;;;;;;10465969;28;20216;-80
2022/06/04 00:57:56;;;;;;;11.17;10.27;;;19.20;99.90;;;;;;10466614;28;20221;-80
2022/06/04 01:03:37;;;;;;;10.73;9.73;;;19.20;99.90;;;;;;10457714;28;20229;-80
2022/06/04 01:09:13;;;;;;;9.57;8.87;;;19.10;99.90;;;;;;10452981;28;20209;-80
2022/06/04 01:14:27;;;;;;;11.10;10.30;;;19.10;99.90;;;;;;10460739;28;20604;-79
2022/06/04 01:19:53;;;;;;;10.40;9.50;;;19.10;99.90;;;;;;10463703;28;20203;-80
2022/06/04 01:25:17;;;;;;;10.20;9.50;;;19.10;99.90;;;;;;10463592;28;20669;-79
2022/06/04 01:30:23;;;;;;;10.17;9.27;;;19.00;99.90;;;;;;10460964;28;20500;-80
2022/06/04 01:35:34;;;;;;;9.20;8.60;;;19.00;99.90;;;;;;10478741;28;20240;-80
2022/06/04 01:46:10;;;;;;;10.00;9.27;;;19.00;99.90;;;;;;10466686;28;20652;-79
2022/06/04 01:51:19;;;;;;;10.80;9.73;;;18.70;99.90;;;;;;10460930;28;20572;-81
2022/06/04 01:56:24;;;;;;;10.50;9.80;;;18.80;99.90;;;;;;10463794;28;20221;-80
2022/06/04 02:01:30;;;;;;;9.47;8.87;;;18.70;99.90;;;;;;10462426;28;20223;-80
2022/06/04 02:06:37;;;;;;;9.80;9.00;;;18.70;99.90;;;;;;10418949;28;20289;-80
2022/06/04 02:11:44;;;;;;;9.53;8.77;;;18.70;99.90;;;;;;10472405;28;20263;-80
2022/06/04 02:16:52;;;;;;;11.80;10.90;;;18.70;99.90;;;;;;10447322;28;20232;-80
2022/06/04 02:21:55;;;;;;;10.13;9.33;;;18.60;99.90;;;;;;10443232;28;20217;-80
2022/06/04 02:26:57;;;;;;;11.03;10.13;;;18.60;99.90;;;;;;10464618;28;20251;-80
2022/06/04 02:32:06;;;;;;;11.53;10.63;;;18.50;99.90;;;;;;10453214;28;20303;-80
2022/06/04 02:37:13;;;;;;;10.90;10.07;;;18.50;99.90;;;;;;10453142;28;20677;-80
2022/06/04 02:42:22;;;;;;;13.40;12.50;;;18.60;99.90;;;;;;10436083;28;20222;-80
2022/06/04 02:47:29;;;;;;;11.77;10.87;;;18.50;99.90;;;;;;10438792;28;20566;-81
2022/06/04 02:52:33;;;;;;;10.87;10.00;;;18.50;99.90;;;;;;10438526;28;20221;-81
2022/06/04 02:57:39;;;;;;;9.23;8.53;;;18.40;99.90;;;;;;10466732;28;20227;-80
2022/06/04 03:02:43;;;;;;;9.47;8.67;;;18.50;99.90;;;;;;10444768;28;20217;-79
2022/06/04 03:07:48;;;;;;;9.40;8.80;;;18.60;99.90;;;;;;10433834;28;20197;-80
2022/06/04 03:12:51;;;;;;;9.30;8.60;;;18.50;99.90;;;;;;10447063;28;20240;-80
2022/06/04 03:17:54;;;;;;;8.43;7.80;;;18.50;99.90;;;;;;10451190;28;20285;-81
2022/06/04 03:23:00;;;;;;;8.90;8.30;;;18.50;99.90;;;;;;10450035;28;20227;-82
2022/06/04 03:28:02;;;;;;;8.23;7.73;;;18.50;99.90;;;;;;10456837;28;20542;-82
2022/06/04 03:33:06;;;;;;;8.70;8.10;;;18.50;99.90;;;;;;10447581;28;20221;-82
2022/06/04 03:38:09;;;;;;;8.17;7.67;;;18.60;99.90;;;;;;10442353;28;20233;-80
2022/06/04 03:43:11;;;;;;;8.90;8.20;;;18.60;99.90;;;;;;10450947;28;20221;-80
2022/06/04 03:48:15;;;;;;;8.57;7.97;;;18.60;99.90;;;;;;10455592;28;20193;-81
2022/06/04 03:53:17;;;;;;;8.70;8.00;;;18.70;99.90;;;;;;10455310;28;20228;-80
2022/06/04 03:58:19;;;;;;;9.13;8.40;;;18.60;99.90;;;;;;10457153;28;20260;-79
2022/06/04 04:03:23;;;;;;;9.67;8.97;;;18.60;99.90;;;;;;10435199;28;20278;-80
2022/06/04 04:08:26;;;;;;;10.87;9.97;;;18.60;99.90;;;;;;10445085;28;20250;-79
2022/06/04 04:13:29;;;;;;;9.17;8.47;;;18.70;99.90;;;;;;10445413;28;20236;-81
2022/06/04 04:18:32;;;;;;;8.10;7.50;;;18.80;99.90;;;;;;10457623;28;20576;-81
2022/06/04 04:23:35;;;;;;;9.07;8.33;;;18.90;99.90;;;;;;10462641;28;20225;-82
2022/06/04 04:28:37;;;;;;;9.20;8.50;;;18.90;99.90;;;;;;10456178;28;20201;-81
2022/06/04 04:33:41;;;;;;;9.80;9.10;;;19.00;99.90;;;;;;10454178;28;20271;-82
2022/06/04 04:38:43;;;;;;;11.23;10.33;;;18.90;99.90;;;;;;10461170;28;20296;-79
2022/06/04 04:43:45;;;;;;;10.93;10.13;;;18.90;99.90;;;;;;10460858;28;20634;-79
2022/06/04 04:48:50;;;;;;;10.20;9.50;;;18.90;99.90;;;;;;10454035;28;20276;-80
2022/06/04 04:53:53;;;;;;;9.20;8.60;;;19.00;99.90;;;;;;10461519;28;20221;-80
2022/06/04 04:58:55;;;;;;;12.20;11.30;;;19.20;99.90;;;;;;10466572;28;20279;-80
2022/06/04 05:03:59;;;;;;;10.23;9.43;;;19.50;99.90;;;;;;10440413;28;20264;-80
2022/06/04 05:09:01;;;;;;;10.40;9.70;;;19.70;99.90;;;;;;10445285;28;20251;-79
2022/06/04 05:14:04;;;;;;;10.47;9.60;;;19.80;99.90;;;;;;10462626;28;20240;-79
2022/06/04 05:19:07;;;;;;;10.97;10.17;;;20.00;99.90;;;;;;10467089;28;20236;-80
2022/06/04 05:24:16;;;;;;;11.03;10.10;;;20.20;99.90;;;;;;10457977;28;20643;-79
2022/06/04 05:29:18;;;;;;;9.70;9.00;;;20.40;99.90;;;;;;10461132;28;20201;-80
2022/06/04 05:34:23;;;;;;;11.00;10.17;;;20.60;99.90;;;;;;10458705;28;20229;-82
2022/06/04 05:39:26;;;;;;;10.63;9.50;;;20.60;99.90;;;;;;10464643;28;20740;-80
2022/06/04 05:44:29;;;;;;;11.40;10.50;;;20.70;99.90;;;;;;10463265;28;20252;-81
2022/06/04 05:49:34;;;;;;;9.50;8.80;;;20.60;99.90;;;;;;10447130;28;20232;-79
2022/06/04 05:54:36;;;;;;;10.17;9.37;;;20.60;99.90;;;;;;10465891;28;20216;-82
2022/06/04 05:59:39;;;;;;;10.27;9.43;;;20.60;99.90;;;;;;10462779;28;20229;-81
2022/06/04 06:04:42;;;;;;;9.93;9.13;;;20.60;99.90;;;;;;10458669;28;20221;-79
2022/06/04 06:09:44;;;;;;;8.47;7.87;;;20.60;99.90;;;;;;10460683;28;20259;-80
2022/06/04 06:14:46;;;;;;;7.20;6.60;;;20.50;99.90;;;;;;10423438;22;20283;-77
2022/06/04 06:19:50;;;;;;;16.27;14.60;;;20.40;99.90;;;;;;10408893;28;20222;-77
2022/06/04 06:24:52;;;;;;;16.20;14.97;;;20.00;99.90;;;;;;10402998;28;20304;-77
2022/06/04 06:29:54;;;;;;;15.10;14.00;;;19.40;99.90;;;;;;10392106;28;20198;-77
2022/06/04 06:34:58;;;;;;;15.80;14.70;;;19.00;99.90;;;;;;10410497;28;20225;-77
2022/06/04 06:40:00;;;;;;;14.83;13.57;;;18.70;99.90;;;;;;10409323;28;20596;-77
2022/06/04 06:45:02;;;;;;;16.17;14.87;;;18.60;99.90;;;;;;10404468;28;20226;-78
2022/06/04 06:50:08;;;;;;;17.67;16.30;;;18.50;99.90;;;;;;10414203;28;20197;-78
2022/06/04 06:55:10;;;;;;;16.20;15.03;;;18.50;99.90;;;;;;10413429;28;20623;-77
2022/06/04 07:00:13;;;;;;;18.63;17.03;;;18.70;99.90;;;;;;10402844;28;20218;-78
2022/06/04 07:05:17;;;;;;;17.50;16.30;;;18.90;99.90;;;;;;10404716;28;20675;-77
2022/06/04 07:10:19;;;;;;;16.93;15.30;;;19.00;99.90;;;;;;10401925;28;20195;-78
2022/06/04 07:15:21;;;;;;;18.17;16.77;;;19.10;99.90;;;;;;10403091;28;20297;-77
2022/06/04 07:20:24;;;;;;;18.53;17.03;;;19.30;99.90;;;;;;10411160;28;20693;-77
2022/06/04 07:25:27;;;;;;;15.80;14.60;;;19.50;99.90;;;;;;10409231;28;20209;-78
2022/06/04 07:30:29;;;;;;;15.80;14.60;;;19.80;99.90;;;;;;10417774;28;20716;-77
2022/06/04 07:35:33;;;;;;;16.97;15.67;;;20.00;99.90;;;;;;10411116;28;20541;-77
2022/06/04 07:40:38;;;;;;;17.37;16.03;;;20.40;99.90;;;;;;10419149;28;20225;-78
2022/06/04 07:45:41;;;;;;;18.57;16.77;;;20.90;99.90;;;;;;10424833;28;20252;-78
2022/06/04 07:50:44;;;;;;;15.13;13.93;;;21.10;99.90;;;;;;10418093;28;20217;-78
2022/06/04 07:55:46;;;;;;;17.20;15.70;;;21.30;99.90;;;;;;10420555;28;20619;-78
2022/06/04 08:00:55;;;;;;;15.80;14.50;;;21.50;99.90;;;;;;10424387;28;20229;-78
2022/06/04 08:05:59;;;;;;;16.47;14.90;;;21.80;99.90;;;;;;10405384;28;20269;-77
2022/06/04 08:11:30;;;;;;;15.63;14.43;;;22.10;99.90;;;;;;10426878;28;20293;-79
2022/06/04 08:16:24;;;;;;;14.87;13.77;;;22.30;99.90;;;;;;10420056;28;20217;-78
2022/06/04 08:21:27;;;;;;;15.30;13.90;;;22.70;99.90;;;;;;10422350;28;20217;-78
2022/06/04 08:26:30;;;;;;;13.90;12.80;;;22.70;99.90;;;;;;10415522;28;20666;-78
2022/06/04 08:31:32;;;;;;;13.07;11.97;;;22.70;99.90;;;;;;10412606;28;20245;-78
2022/06/04 08:36:36;;;;;;;14.40;13.20;;;22.80;99.90;;;;;;10412902;28;20224;-77
2022/06/04 08:42:00;;;;;;;13.57;12.57;;;23.30;99.90;;;;;;10409924;28;20578;-77
2022/06/04 08:47:12;;;;;;;11.67;10.67;;;24.40;99.90;;;;;;10411810;28;20225;-77
2022/06/04 08:52:19;;;;;;;10.17;9.40;;;25.10;99.90;;;;;;10414333;28;20245;-77
2022/06/04 08:57:34;;;;;;;8.53;7.93;;;25.20;99.90;;;;;;10414142;28;20206;-77
2022/06/04 09:02:49;;;;;;;10.13;9.23;;;25.90;99.90;;;;;;10410425;28;20222;-78
2022/06/04 09:07:59;;;;;;;9.50;8.80;;;26.20;99.90;;;;;;10411499;28;20661;-77
2022/06/04 09:13:09;;;;;;;8.27;7.60;;;26.00;99.90;;;;;;10408489;28;20250;-78
2022/06/04 09:18:16;;;;;;;7.73;7.23;;;26.20;99.90;;;;;;10408459;28;20221;-77
2022/06/04 09:23:27;;;;;;;12.03;10.90;;;26.60;99.90;;;;;;10397813;28;20228;-77
2022/06/04 09:28:39;;;;;;;10.00;9.23;;;26.60;99.90;;;;;;10410403;28;20248;-78
2022/06/04 09:33:56;;;;;;;8.77;8.17;;;26.30;99.90;;;;;;10410377;28;20253;-78
2022/06/04 09:39:02;;;;;;;9.37;8.67;;;26.10;99.90;;;;;;10412283;28;20784;-77
2022/06/04 09:44:08;;;;;;;8.97;8.27;;;26.50;99.90;;;;;;10411826;28;20250;-78
2022/06/04 09:49:19;;;;;;;10.30;9.40;;;26.60;99.90;;;;;;10412811;28;20190;-77
2022/06/04 09:54:28;;;;;;;11.67;10.60;;;26.40;99.90;;;;;;10407621;28;20232;-77
2022/06/04 09:59:32;;;;;;;10.80;9.90;;;26.10;99.90;;;;;;10409076;28;20257;-77
2022/06/04 10:04:40;;;;;;;10.47;9.67;;;26.00;99.90;;;;;;10402777;28;20272;-77
2022/06/04 10:09:56;;;;;;;11.53;10.73;;;25.80;99.90;;;;;;10410572;28;20205;-77
2022/06/04 10:15:00;;;;;;;11.83;10.93;;;25.70;99.90;;;;;;10411476;28;20250;-77
2022/06/04 10:20:02;;;;;;;12.60;11.37;;;25.70;99.90;;;;;;10404350;28;20291;-77
2022/06/04 10:25:21;;;;;;;11.83;10.93;;;25.30;99.90;;;;;;10406494;28;20661;-77
2022/06/04 10:30:27;;;;;;;9.70;8.80;;;25.10;99.90;;;;;;10400995;28;20620;-77
2022/06/04 10:36:01;;;;;;;13.07;11.93;;;24.80;99.90;;;;;;10391321;28;20231;-78
2022/06/04 10:41:13;;;;;;;9.80;8.93;;;24.60;99.90;;;;;;10400938;28;20223;-77
2022/06/04 10:46:27;;;;;;;10.27;9.40;;;24.40;99.90;;;;;;10395839;28;20194;-77
2022/06/04 10:51:42;;;;;;;7.90;7.30;;;24.50;99.90;;;;;;10409835;28;20685;-78
2022/06/04 10:56:49;;;;;;;9.63;8.93;;;24.60;99.90;;;;;;10409512;28;20278;-77
2022/06/04 11:01:57;;;;;;;10.97;10.13;;;24.40;99.90;;;;;;10401431;28;20227;-77
2022/06/04 11:07:06;;;;;;;10.47;9.60;;;24.10;99.90;;;;;;10381646;28;20203;-77
2022/06/04 11:12:25;;;;;;;12.43;11.43;;;23.80;99.90;;;;;;10395145;28;20225;-78
2022/06/04 11:17:32;;;;;;;13.97;12.93;;;23.60;99.90;;;;;;10411218;28;20217;-78
2022/06/04 11:22:37;;;;;;;15.40;14.10;;;23.40;99.90;;;;;;10416470;28;20221;-78
2022/06/04 11:27:46;;;;;;;14.30;13.17;;;23.10;99.90;;;;;;10416738;28;20252;-77
2022/06/04 11:32:55;;;;;;;13.20;12.20;;;23.00;99.90;;;;;;10407932;28;20233;-78
2022/06/04 11:38:14;;;;;;;16.77;15.57;;;23.00;99.90;;;;;;10392488;28;20324;-78
2022/06/04 11:43:29;;;;;;;17.07;15.47;;;22.90;99.90;;;;;;10415151;28;20308;-77
2022/06/04 11:48:54;;;;;;;18.93;17.33;;;22.90;99.90;;;;;;10415312;28;20194;-77
2022/06/04 11:54:01;;;;;;;20.27;18.67;;;22.80;99.90;;;;;;10406855;28;20605;-78
2022/06/04 11:59:26;;;;;;;20.17;18.43;;;22.90;99.90;;;;;;10405072;28;20221;-77
2022/06/04 12:04:32;;;;;;;22.33;20.13;;;23.00;99.90;;;;;;10405142;28;20706;-77
2022/06/04 12:09:45;;;;;;;15.07;13.87;;;23.20;99.90;;;;;;10406184;28;20740;-77
2022/06/04 12:14:54;;;;;;;18.80;17.30;;;23.50;99.90;;;;;;10431352;22;20226;-81
2022/06/04 12:25:40;;;;;;;16.87;15.47;;;23.80;99.90;;;;;;10354881;28;20241;-82
2022/06/04 12:30:46;;;;;;;19.57;17.97;;;23.90;99.90;;;;;;10367267;28;20234;-80
2022/06/04 12:35:56;;;;;;;19.63;18.13;;;24.30;99.90;;;;;;10359895;28;20203;-80
2022/06/04 12:41:16;;;;;;;16.30;15.00;;;24.30;99.90;;;;;;10381730;28;20231;-79
2022/06/04 12:46:33;;;;;;;16.13;14.83;;;24.30;99.90;;;;;;10355450;28;20199;-80
2022/06/04 12:51:54;;;;;;;18.30;16.90;;;24.30;99.90;;;;;;10347414;28;20229;-80
2022/06/04 12:57:03;;;;;;;18.33;16.77;;;24.40;99.90;;;;;;10363745;28;20211;-81
2022/06/04 13:02:29;;;;;;;17.00;15.70;;;24.30;99.90;;;;;;10374412;28;20327;-80
2022/06/04 13:07:39;;;;;;;13.43;12.43;;;24.20;99.90;;;;;;10388108;28;20226;-80
2022/06/04 13:12:48;;;;;;;15.70;14.53;;;24.10;99.90;;;;;;10371234;28;20234;-81
2022/06/04 13:17:53;;;;;;;19.20;17.40;;;24.00;99.90;;;;;;10382565;28;20226;-82
2022/06/04 13:22:59;;;;;;;12.53;11.43;;;23.80;99.90;;;;;;10370360;28;20227;-82
2022/06/04 13:28:01;;;;;;;13.13;12.03;;;23.60;99.90;;;;;;10375282;28;20211;-80
2022/06/04 13:33:12;;;;;;;10.30;9.60;;;23.50;99.90;;;;;;10372851;28;20965;-82
2022/06/04 13:38:25;;;;;;;9.93;9.00;;;23.50;99.90;;;;;;10371989;28;20218;-82
2022/06/04 13:43:28;;;;;;;8.77;8.17;;;23.40;99.90;;;;;;10354160;28;20235;-81
2022/06/04 13:48:32;;;;;;;9.30;8.50;;;23.40;99.90;;;;;;10373674;28;20206;-82
2022/06/04 13:53:46;;;;;;;9.33;8.63;;;23.40;99.90;;;;;;10363299;28;20302;-82
2022/06/04 13:58:48;;;;;;;9.20;8.50;;;23.40;99.90;;;;;;10358091;28;20280;-82
2022/06/04 14:05:43;;;;;;;9.80;9.10;;;23.40;99.90;;;;;;10364073;28;20215;-81
2022/06/04 14:09:23;;;;;;;9.80;9.10;;;23.40;99.90;;;;;;10372076;28;20205;-82
2022/06/04 14:14:38;;;;;;;9.27;8.67;;;23.40;99.90;;;;;;10347723;28;20231;-81
2022/06/04 14:20:09;;;;;;;9.77;9.07;;;23.40;99.90;;;;;;10369291;28;20254;-82
2022/06/04 14:25:21;;;;;;;9.00;8.40;;;23.50;99.90;;;;;;10367250;28;20231;-82
2022/06/04 14:30:32;;;;;;;9.17;8.57;;;23.50;99.90;;;;;;10354692;28;20290;-81
2022/06/04 14:35:38;;;;;;;8.60;8.00;;;23.40;99.90;;;;;;10369779;28;20653;-81
2022/06/04 14:41:00;;;;;;;8.50;7.90;;;23.30;99.90;;;;;;10364261;28;20222;-81
2022/06/04 14:46:16;;;;;;;8.57;7.87;;;23.30;99.90;;;;;;10372875;28;20256;-83
2022/06/04 14:51:42;;;;;;;8.30;7.70;;;23.30;99.90;;;;;;10366307;28;20221;-82
2022/06/04 14:56:59;;;;;;;9.43;8.73;;;23.30;99.90;;;;;;10365274;28;20233;-82
2022/06/04 15:02:20;;;;;;;8.60;8.00;;;23.30;99.90;;;;;;10389845;28;20254;-82
2022/06/04 15:07:46;;;;;;;8.60;7.90;;;23.40;99.90;;;;;;10374543;28;20285;-80
2022/06/04 15:12:58;;;;;;;8.43;7.77;;;23.50;99.90;;;;;;10375595;28;20257;-82
2022/06/04 15:18:37;;;;;;;7.50;7.00;;;23.50;99.90;;;;;;10374425;28;20214;-82
2022/06/04 15:24:32;;;;;;;7.40;6.80;;;23.50;99.90;;;;;;10372600;28;20222;-82
2022/06/04 15:35:00;;;;;;;7.00;6.50;;;23.60;99.90;;;;;;10360066;28;20214;-82
2022/06/04 15:40:29;;;;;;;6.73;6.27;;;23.60;99.90;;;;;;10357191;28;20210;-81
2022/06/04 15:45:34;;;;;;;7.90;7.30;;;23.60;99.90;;;;;;10387380;28;20202;-81
2022/06/04 15:56:39;;;;;;;6.70;6.30;;;23.60;99.90;;;;;;10378825;28;20201;-81
2022/06/04 16:01:48;;;;;;;7.77;7.17;;;23.60;99.90;;;;;;10364490;28;20312;-81
2022/06/04 16:07:15;;;;;;;7.20;6.60;;;23.60;99.90;;;;;;10361530;28;20210;-80
2022/06/04 16:12:34;;;;;;;7.60;7.10;;;23.50;99.90;;;;;;10351831;28;20234;-81
2022/06/04 16:17:44;;;;;;;6.97;6.47;;;23.50;99.90;;;;;;10370103;28;20230;-82
2022/06/04 16:22:55;;;;;;;7.17;6.67;;;23.50;99.90;;;;;;10372199;28;20222;-82
2022/06/04 16:28:08;;;;;;;7.80;7.30;;;23.40;99.90;;;;;;10355410;28;20563;-80
2022/06/04 16:33:20;;;;;;;8.37;7.43;;;23.40;99.90;;;;;;10371645;28;20225;-81
2022/06/04 16:38:26;;;;;;;9.07;8.47;;;23.40;99.90;;;;;;10355483;28;20214;-80
2022/06/04 16:43:30;;;;;;;7.50;7.00;;;23.40;99.90;;;;;;10350305;28;20223;-80
2022/06/04 16:48:33;;;;;;;8.30;7.50;;;23.40;99.90;;;;;;10364529;28;20678;-81
2022/06/04 16:53:37;;;;;;;9.10;8.60;;;23.30;99.90;;;;;;10355662;28;20222;-80
2022/06/04 16:58:41;;;;;;;7.73;7.03;;;23.30;99.90;;;;;;10335457;28;20211;-81
2022/06/04 17:03:53;;;;;;;8.50;7.87;;;23.30;99.90;;;;;;10362945;28;20250;-80
2022/06/04 17:09:24;;;;;;;7.83;7.07;;;23.30;99.90;;;;;;10356547;28;20202;-80
2022/06/04 17:14:40;;;;;;;7.20;6.60;;;23.30;99.90;;;;;;10375634;28;20250;-81
2022/06/04 17:20:01;;;;;;;6.50;6.10;;;23.30;99.90;;;;;;10360179;28;20222;-81
2022/06/04 17:25:27;;;;;;;9.20;7.30;;;23.20;99.90;;;;;;10372595;28;20226;-81
2022/06/04 17:30:38;;;;;;;9.00;8.20;;;23.20;99.90;;;;;;10353188;28;20657;-81
2022/06/04 17:35:50;;;;;;;7.60;7.00;;;23.20;99.90;;;;;;10376305;28;20206;-82
2022/06/04 17:40:58;;;;;;;6.97;6.57;;;23.10;99.90;;;;;;10367465;28;20261;-81
2022/06/04 17:46:02;;;;;;;6.93;6.30;;;23.10;99.90;;;;;;10373874;28;20289;-82
2022/06/04 17:51:05;;;;;;;8.10;7.60;;;23.10;99.90;;;;;;10374305;28;20222;-82
2022/06/04 17:56:08;;;;;;;6.70;6.20;;;23.10;99.90;;;;;;10375213;28;20222;-82
2022/06/04 18:01:11;;;;;;;7.57;6.97;;;23.10;99.90;;;;;;10376406;28;20611;-82
2022/06/04 18:06:13;;;;;;;7.40;6.80;;;23.00;99.90;;;;;;10359653;28;20206;-81
2022/06/04 18:11:15;;;;;;;8.03;7.40;;;23.00;99.90;;;;;;10377932;28;20218;-82
2022/06/04 18:16:19;;;;;;;8.80;8.20;;;23.00;99.90;;;;;;10364677;28;20217;-81
2022/06/04 18:21:21;;;;;;;8.40;7.80;;;23.00;99.90;;;;;;10373540;28;20242;-81
2022/06/04 18:26:23;;;;;;;9.10;8.30;;;22.90;99.90;;;;;;10375390;28;20238;-81
2022/06/04 18:31:27;;;;;;;9.00;8.27;;;22.90;99.90;;;;;;10360842;28;20646;-80
2022/06/04 18:36:30;;;;;;;9.97;9.17;;;22.80;99.90;;;;;;10359212;28;20289;-81
2022/06/04 18:41:32;;;;;;;8.63;8.03;;;22.80;99.90;;;;;;10351611;28;20260;-81
2022/06/04 18:57:20;;;;;;;9.80;9.20;;;22.70;99.90;;;;;;10370356;28;20198;-82
2022/06/04 19:02:24;;;;;;;13.10;11.90;;;22.70;99.90;;;;;;10366022;28;20229;-82
2022/06/04 19:18:08;;;;;;;11.47;10.53;;;22.40;99.90;;;;;;10375764;28;20225;-79
2022/06/04 19:28:29;;;;;;;10.60;9.70;;;22.10;99.90;;;;;;10375461;28;20201;-81
2022/06/04 19:33:33;;;;;;;12.97;11.87;;;21.90;99.90;;;;;;10380120;28;20222;-81
2022/06/04 19:38:37;;;;;;;13.33;12.17;;;21.70;99.90;;;;;;10384023;28;20222;-79
2022/06/04 19:43:39;;;;;;;12.43;11.53;;;21.60;99.90;;;;;;10368297;28;20221;-82
2022/06/04 19:48:43;;;;;;;11.30;10.40;;;21.60;99.90;;;;;;10379029;28;20246;-81
2022/06/04 19:59:04;;;;;;;11.60;10.70;;;21.50;99.90;;;;;;10375067;28;20228;-82
2022/06/04 20:04:08;;;;;;;10.00;9.17;;;21.40;99.90;;;;;;10365228;28;20222;-81
2022/06/04 20:09:10;;;;;;;10.57;9.67;;;21.20;99.90;;;;;;10367284;28;20202;-81
2022/06/04 20:14:13;;;;;;;10.70;9.80;;;21.10;99.90;;;;;;10361168;28;20230;-81
2022/06/04 20:19:17;;;;;;;8.70;8.03;;;21.00;99.90;;;;;;10363748;28;20309;-83
2022/06/04 20:24:19;;;;;;;8.60;8.00;;;20.90;99.90;;;;;;10358677;28;20229;-82
2022/06/04 20:29:21;;;;;;;8.47;7.87;;;20.80;99.90;;;;;;10376811;28;20226;-81
2022/06/04 20:34:25;;;;;;;9.70;8.97;;;20.70;99.90;;;;;;10357224;28;20702;-82
2022/06/04 20:39:27;;;;;;;16.63;15.03;;;20.80;99.90;;;;;;10376133;28;20237;-81
2022/06/04 20:44:29;;;;;;;14.40;13.00;;;20.80;99.90;;;;;;10361253;28;20615;-84
2022/06/04 20:49:32;;;;;;;15.97;14.57;;;20.90;99.90;;;;;;10364150;28;20198;-83
2022/06/04 20:54:35;;;;;;;11.70;10.70;;;20.90;99.90;;;;;;10382842;28;20233;-81
2022/06/04 20:59:37;;;;;;;9.13;8.37;;;20.90;99.90;;;;;;10346534;28;20313;-81
2022/06/04 21:04:40;;;;;;;8.60;7.80;;;21.00;99.90;;;;;;10353227;28;20305;-80
2022/06/04 21:09:43;;;;;;;9.27;8.53;;;21.00;99.90;;;;;;10355837;28;20203;-82
2022/06/04 21:14:45;;;;;;;8.40;7.80;;;20.80;99.90;;;;;;10350433;28;20298;-83
2022/06/04 21:19:49;;;;;;;9.37;8.57;;;20.70;99.90;;;;;;10362782;28;20280;-81
2022/06/04 21:24:51;;;;;;;9.33;8.57;;;20.70;99.90;;;;;;10363074;28;20254;-80
2022/06/04 21:29:53;;;;;;;8.07;7.47;;;20.80;99.90;;;;;;10367404;28;20203;-80
2022/06/04 21:40:19;;;;;;;9.33;8.73;;;20.80;99.90;;;;;;10360635;28;20244;-81
2022/06/04 21:45:23;;;;;;;8.90;8.30;;;20.70;99.90;;;;;;10377302;28;20460;-83
2022/06/04 21:50:29;;;;;;;8.00;7.43;;;20.80;99.90;;;;;;10351061;28;20198;-81
2022/06/04 21:55:31;;;;;;;9.20;8.50;;;20.80;99.90;;;;;;10353807;28;20257;-82
2022/06/04 22:01:10;;;;;;;10.07;9.17;;;20.80;99.90;;;;;;10370738;28;20230;-82
2022/06/04 22:06:14;;;;;;;8.73;8.03;;;20.80;99.90;;;;;;10357132;28;20650;-82
2022/06/04 22:11:19;;;;;;;9.60;8.87;;;20.70;99.90;;;;;;10372287;28;20226;-80
2022/06/04 22:16:23;;;;;;;8.83;8.13;;;20.70;99.90;;;;;;10350040;28;20294;-81
2022/06/04 22:21:30;;;;;;;8.50;7.80;;;20.70;99.90;;;;;;10369232;28;20232;-80
2022/06/04 22:26:32;;;;;;;9.43;8.63;;;20.70;99.90;;;;;;10366634;28;20190;-81
2022/06/04 22:31:34;;;;;;;8.80;7.63;;;20.70;99.90;;;;;;10372730;28;20677;-82
2022/06/04 22:36:38;;;;;;;9.07;8.37;;;20.60;99.90;;;;;;10354017;28;20202;-81
2022/06/04 22:41:41;;;;;;;8.77;8.07;;;20.50;99.90;;;;;;10372376;28;20226;-84
2022/06/04 22:46:43;;;;;;;9.03;8.40;;;20.50;99.90;;;;;;10356602;28;20253;-82
2022/06/04 22:51:51;;;;;;;9.10;8.23;;;20.40;99.90;;;;;;10367550;28;20651;-83
2022/06/04 22:56:55;;;;;;;9.13;8.53;;;20.30;99.90;;;;;;10363404;28;20199;-83
2022/06/04 23:01:57;;;;;;;8.47;7.77;;;20.30;99.90;;;;;;10353417;28;20230;-83
2022/06/04 23:07:01;;;;;;;8.90;8.30;;;20.20;99.90;;;;;;10340462;28;20202;-82
2022/06/04 23:28:05;;;;;;;9.00;8.40;;;20.30;99.90;;;;;;10367179;28;20222;-80
2022/06/04 23:33:08;;;;;;;9.27;8.40;;;20.10;99.90;;;;;;10349890;28;20268;-81
2022/06/04 23:38:11;;;;;;;8.60;7.83;;;20.10;99.90;;;;;;10367733;28;20213;-83
2022/06/04 23:43:14;;;;;;;8.30;7.80;;;20.10;99.90;;;;;;10369323;28;20234;-80
2022/06/04 23:48:18;;;;;;;8.03;7.43;;;20.20;99.90;;;;;;10349627;28;20519;-82
2022/06/04 23:53:23;;;;;;;8.30;7.63;;;20.10;99.90;;;;;;10362121;28;20725;-80
2022/06/04 23:58:25;;;;;;;8.97;8.03;;;20.20;99.90;;;;;;10363694;28;20202;-80
